Time;durP1;ratioP1;P1;durP2;ratioP2;P2;SDS_P1;SDS_P2;PMS_P1;PMS_P2;Temp;Humidity;BMP_temperature;BMP_pressure;BME280_temperature;BME280_humidity;BME280_pressure;Samples;Min_cycle;Max_cycle;Signal;HPM_P1;HPM_P2
2021/12/06 00:01:20;;;;;;;;;56.33;43.33;;;;;6.55;94.72;100895.50;5037512;28;45369;-70
2021/12/06 00:03:48;;;;;;;;;53.67;45.33;;;;;6.55;94.43;100895.50;4956043;28;45403;-69
2021/12/06 00:06:16;;;;;;;;;56.67;43.67;;;;;6.33;94.58;100860.69;4956021;28;46260;-69
2021/12/06 00:08:41;;;;;;;;;56.00;42.33;;;;;6.51;93.25;100899.88;4955519;28;45435;-69
2021/12/06 00:11:09;;;;;;;;;55.67;44.33;;;;;6.49;92.92;100899.03;4956161;28;45543;-70
2021/12/06 00:13:37;;;;;;;;;52.67;42.33;;;;;6.35;92.98;100882.50;4956374;28;45396;-69
2021/12/06 00:16:07;;;;;;;;;58.00;44.33;;;;;6.47;94.92;100913.84;4955541;28;46517;-71
2021/12/06 00:18:33;;;;;;;;;49.67;40.33;;;;;6.45;93.97;100915.59;4955873;28;45368;-69
2021/12/06 00:20:59;;;;;;;;;59.33;43.67;;;;;6.47;94.18;100913.84;4956319;28;45469;-70
2021/12/06 00:23:24;;;;;;;;;53.67;40.00;;;;;6.54;94.66;100925.16;4956228;28;45507;-70
2021/12/06 00:25:49;;;;;;;;;48.33;39.00;;;;;6.62;94.27;100937.34;4956229;28;46442;-70
2021/12/06 00:28:15;;;;;;;;;51.00;40.00;;;;;6.54;93.01;100933.88;4955754;28;45556;-69
2021/12/06 00:30:41;;;;;;;;;48.00;38.67;;;;;6.57;93.09;100946.94;4955818;28;45315;-70
2021/12/06 00:33:06;;;;;;;;;52.33;40.67;;;;;6.32;93.76;100906.03;4956167;28;45993;-70
2021/12/06 00:35:32;;;;;;;;;51.67;40.67;;;;;6.40;94.30;100914.72;4955753;28;46431;-70
2021/12/06 00:37:58;;;;;;;;;59.33;44.33;;;;;6.62;92.65;100950.44;4956028;28;45521;-69
2021/12/06 00:40:28;;;;;;;;;57.00;42.00;;;;;6.66;93.51;100963.50;5003973;28;45483;-70
2021/12/06 00:42:54;;;;;;;;;59.00;43.67;;;;;6.68;93.49;100959.13;5036679;28;45440;-70
2021/12/06 00:45:21;;;;;;;;;56.00;43.67;;;;;6.67;93.86;100962.63;5036725;28;45504;-70
2021/12/06 00:47:47;;;;;;;;;58.67;42.33;;;;;6.60;92.85;100946.06;5036573;28;45529;-69
2021/12/06 00:50:15;;;;;;;;;49.33;38.33;;;;;6.66;93.18;100958.25;5036670;28;45422;-70
2021/12/06 00:52:40;;;;;;;;;52.33;41.00;;;;;6.60;92.67;100962.63;5037039;28;45393;-70
2021/12/06 00:55:07;;;;;;;;;60.33;45.00;;;;;6.53;93.70;100949.56;5036251;28;46505;-70
2021/12/06 00:57:32;;;;;;;;;54.33;40.33;;;;;6.48;92.40;100943.47;5038673;28;45401;-70
2021/12/06 00:59:57;;;;;;;;;52.33;41.00;;;;;6.53;92.65;100971.38;5040205;28;45349;-70
2021/12/06 01:02:23;;;;;;;;;50.33;38.67;;;;;6.54;93.30;100978.34;5040085;28;45434;-70
2021/12/06 01:04:49;;;;;;;;;53.33;41.33;;;;;6.52;93.03;100982.72;5040175;28;46184;-69
2021/12/06 01:07:16;;;;;;;;;57.67;43.33;;;;;6.55;93.60;100982.72;5040159;28;45207;-69
2021/12/06 01:09:41;;;;;;;;;54.67;42.00;;;;;6.54;93.40;100973.13;5040128;28;45350;-69
2021/12/06 01:12:08;;;;;;;;;54.67;44.67;;;;;6.61;93.64;100981.81;5039936;28;45197;-69
2021/12/06 01:14:34;;;;;;;;;63.67;47.33;;;;;6.60;92.71;100974.84;5039947;28;46429;-70
2021/12/06 01:16:59;;;;;;;;;55.00;42.33;;;;;6.20;92.98;100905.22;5039674;28;45437;-70
2021/12/06 01:19:29;;;;;;;;;51.67;43.33;;;;;6.57;92.74;100973.09;5039827;28;45253;-70
2021/12/06 01:24:53;;;;;;;;;44.67;38.67;;;;;6.48;92.08;100980.97;4939132;28;46732;-70
2021/12/06 01:40:08;;;;;;;;;47.67;39.00;;;;;6.44;90.90;101006.25;4939145;28;45516;-70
2021/12/06 01:42:33;;;;;;;;;42.67;36.33;;;;;6.35;92.30;100997.56;4938899;28;45448;-70
2021/12/06 01:44:59;;;;;;;;;43.67;36.33;;;;;6.33;90.87;100999.31;4939190;28;45920;-70
2021/12/06 01:47:36;;;;;;;;;46.67;38.67;;;;;6.29;91.10;101003.69;4938878;28;45392;-70
2021/12/06 01:50:14;;;;;;;;;52.67;41.00;;;;;6.34;90.78;101012.38;4939120;28;45517;-70
2021/12/06 01:52:46;;;;;;;;;53.33;41.00;;;;;6.24;91.35;101006.28;4939300;28;45420;-70
2021/12/06 01:55:16;;;;;;;;;54.67;41.00;;;;;6.05;91.72;100973.19;4938869;28;47270;-70
2021/12/06 01:57:42;;;;;;;;;53.33;42.00;;;;;6.08;91.38;100987.13;4938965;28;45347;-70
2021/12/06 02:00:12;;;;;;;;;51.67;42.00;;;;;5.95;92.28;100968.81;4939103;28;45321;-69
2021/12/06 02:02:37;;;;;;;;;55.00;42.33;;;;;6.23;92.41;101020.25;5025163;28;45491;-70
2021/12/06 02:05:04;;;;;;;;;57.33;44.33;;;;;6.17;91.18;100995.81;5039057;28;46310;-70
2021/12/06 02:07:32;;;;;;;;;57.33;43.67;;;;;6.28;92.04;101022.84;5039196;28;45318;-70
2021/12/06 02:09:58;;;;;;;;;52.00;43.00;;;;;6.33;91.54;101031.56;5038404;28;45335;-70
2021/12/06 02:12:27;;;;;;;;;54.67;42.33;;;;;6.30;91.58;101033.31;5038933;28;45208;-70
2021/12/06 02:15:03;;;;;;;;;56.67;46.00;;;;;6.33;91.98;101038.53;5039016;28;46138;-70
2021/12/06 02:17:33;;;;;;;;;49.67;38.33;;;;;6.26;92.50;101028.09;5038737;28;45444;-69
2021/12/06 02:20:05;;;;;;;;;55.33;40.00;;;;;6.35;91.22;101040.28;5039000;28;45252;-69
2021/12/06 02:22:34;;;;;;;;;59.67;44.67;;;;;6.35;91.79;101039.41;5039189;28;45317;-70
2021/12/06 02:25:01;;;;;;;;;58.33;45.00;;;;;6.27;91.20;101031.56;5038669;28;47321;-69
2021/12/06 02:27:28;;;;;;;;;57.00;42.00;;;;;6.33;91.22;101049.88;5038592;28;45321;-69
2021/12/06 02:29:57;;;;;;;;;59.00;44.00;;;;;6.27;91.33;101042.00;5038994;28;45377;-69
2021/12/06 02:32:23;;;;;;;;;61.33;44.33;;;;;6.29;92.61;101048.13;5038750;28;45481;-69
2021/12/06 02:34:52;;;;;;;;;54.67;43.00;;;;;6.31;92.06;101042.91;5037619;28;45469;-69
2021/12/06 02:37:22;;;;;;;;;57.00;43.67;;;;;6.31;91.96;101051.59;5038882;28;45426;-69
2021/12/06 02:39:48;;;;;;;;;46.67;38.00;;;;;6.21;91.95;101035.03;5038547;28;45462;-69
2021/12/06 02:42:15;;;;;;;;;55.67;42.00;;;;;6.25;91.62;101039.41;5038782;28;45512;-70
2021/12/06 02:44:43;;;;;;;;;55.33;43.67;;;;;6.19;91.42;101034.19;5038595;28;46419;-70
2021/12/06 02:47:08;;;;;;;;;59.33;46.33;;;;;6.22;92.12;101049.00;5038169;28;45555;-70
2021/12/06 02:49:34;;;;;;;;;54.33;43.00;;;;;6.15;92.35;101042.91;5038742;28;45313;-70
2021/12/06 02:52:00;;;;;;;;;56.00;42.67;;;;;5.87;92.41;101005.41;5038671;28;45581;-70
2021/12/06 02:54:26;;;;;;;;;60.33;45.33;;;;;6.08;93.31;101043.75;5038398;28;46460;-70
2021/12/06 02:57:08;;;;;;;;;57.00;44.00;;;;;6.04;93.02;101042.00;5038461;28;45445;-69
2021/12/06 02:59:35;;;;;;;;;62.33;46.33;;;;;6.03;92.77;101054.22;5038385;28;45349;-69
2021/12/06 03:02:12;;;;;;;;;56.00;44.00;;;;;6.07;93.87;101060.31;5038235;28;45370;-69
2021/12/06 03:04:39;;;;;;;;;63.33;46.67;;;;;6.08;93.39;101056.84;5018258;28;45329;-69
2021/12/06 03:07:05;;;;;;;;;61.00;44.00;;;;;6.09;93.52;101059.44;5018430;28;45473;-69
2021/12/06 03:09:34;;;;;;;;;52.33;42.00;;;;;6.10;93.20;101057.72;5018320;28;45288;-69
2021/12/06 03:12:05;;;;;;;;;52.33;42.00;;;;;6.08;92.78;101065.56;5018326;28;45392;-69
2021/12/06 03:14:35;;;;;;;;;65.67;47.67;;;;;6.03;92.76;101059.44;5018006;28;45317;-69
2021/12/06 03:17:05;;;;;;;;;58.33;45.33;;;;;5.90;93.00;101049.81;5017974;28;45417;-69
2021/12/06 03:19:30;;;;;;;;;65.67;43.33;;;;;5.88;93.28;101048.94;5017775;28;45426;-69
2021/12/06 03:21:56;;;;;;;;;58.00;45.67;;;;;5.79;92.84;101041.94;5017352;28;45512;-69
2021/12/06 03:24:22;;;;;;;;;54.00;41.67;;;;;5.53;93.09;101016.66;5018092;28;45494;-69
2021/12/06 03:26:50;;;;;;;;;54.33;43.00;;;;;5.64;92.66;101047.16;5018099;28;45320;-69
2021/12/06 03:29:16;;;;;;;;;67.67;47.33;;;;;5.56;92.60;101048.00;5018047;28;45390;-70
2021/12/06 03:31:42;;;;;;;;;63.33;46.33;;;;;5.45;93.59;101048.84;5018231;28;45305;-69
2021/12/06 03:34:08;;;;;;;;;63.67;46.33;;;;;5.37;93.86;101043.59;5017653;28;45413;-69
2021/12/06 03:36:36;;;;;;;;;61.67;48.00;;;;;5.26;94.67;101040.06;5017963;28;45243;-69
2021/12/06 03:39:05;;;;;;;;;54.50;42.50;;;;;5.31;93.79;101061.84;5018009;28;45263;-69
2021/12/06 03:41:31;;;;;;;;;56.67;46.00;;;;;5.26;94.67;101064.44;5017939;28;45495;-70
2021/12/06 03:43:57;;;;;;;;;63.33;48.33;;;;;5.25;95.36;101069.66;5017418;28;45345;-70
2021/12/06 03:46:24;;;;;;;;;57.33;46.00;;;;;5.27;95.42;101081.88;5017842;28;45381;-69
2021/12/06 03:48:50;;;;;;;;;60.33;47.67;;;;;5.23;94.60;101075.75;5017528;28;45223;-69
2021/12/06 03:51:16;;;;;;;;;63.67;47.00;;;;;5.02;95.44;101053.00;5018038;28;45389;-69
2021/12/06 03:53:43;;;;;;;;;65.33;47.67;;;;;5.21;94.88;101076.59;5017631;28;46310;-69
2021/12/06 03:56:09;;;;;;;;;59.00;46.33;;;;;5.15;95.21;101072.22;5017419;28;45548;-69
2021/12/06 03:58:35;;;;;;;;;59.33;45.67;;;;;5.08;94.17;101067.81;5017633;28;45307;-69
2021/12/06 04:01:02;;;;;;;;;59.67;47.00;;;;;5.01;94.00;101060.81;5017681;28;45392;-69
2021/12/06 04:03:28;;;;;;;;;59.67;45.33;;;;;4.96;94.45;101065.16;5027882;28;45950;-69
2021/12/06 04:05:55;;;;;;;;;62.33;46.67;;;;;4.96;93.99;101078.22;5037315;28;45246;-69
2021/12/06 04:08:20;;;;;;;;;59.33;45.67;;;;;4.90;94.38;101078.19;5037364;28;45235;-69
2021/12/06 04:10:46;;;;;;;;;48.50;38.00;;;;;4.85;94.07;101072.91;5037764;28;45366;-69
2021/12/06 04:13:12;;;;;;;;;61.67;45.00;;;;;4.77;95.32;101096.34;5037092;28;46176;-69
2021/12/06 04:15:40;;;;;;;;;64.00;50.67;;;;;4.82;94.75;101093.75;5037257;28;45386;-69
2021/12/06 04:18:07;;;;;;;;;62.33;47.67;;;;;4.80;94.98;101093.75;5036730;28;45500;-69
2021/12/06 04:20:34;;;;;;;;;58.67;47.67;;;;;4.71;94.40;101081.53;5036432;28;45446;-70
2021/12/06 04:23:00;;;;;;;;;58.00;45.00;;;;;4.77;95.71;101105.94;5036942;28;46191;-69
2021/12/06 04:25:25;;;;;;;;;59.33;46.33;;;;;4.57;94.88;101077.94;5036854;28;45405;-69
2021/12/06 04:27:54;;;;;;;;;62.00;49.00;;;;;4.72;94.83;101116.34;5037080;28;45366;-69
2021/12/06 04:30:22;;;;;;;;;57.33;44.00;;;;;4.67;94.87;101107.59;5037468;28;45436;-69
2021/12/06 04:32:50;;;;;;;;;66.00;47.33;;;;;4.67;94.02;101124.09;5036127;28;46430;-69
2021/12/06 04:35:15;;;;;;;;;57.33;44.00;;;;;4.58;94.00;101108.38;5036797;28;45555;-69
2021/12/06 04:37:41;;;;;;;;;40.00;32.33;;;;;4.54;94.55;101119.66;5037151;28;45335;-69
2021/12/06 04:40:09;;;;;;;;;62.00;47.00;;;;;4.55;94.35;101121.41;5037178;28;45308;-71
2021/12/06 04:42:35;;;;;;;;;55.67;46.00;;;;;4.54;94.21;101111.84;5036682;28;46815;-70
2021/12/06 04:45:00;;;;;;;;;63.00;45.67;;;;;4.49;94.66;101101.38;5036640;28;45279;-70
2021/12/06 04:47:26;;;;;;;;;63.00;45.33;;;;;4.48;94.65;101106.56;5036998;28;45804;-70
2021/12/06 04:49:51;;;;;;;;;57.33;45.67;;;;;4.52;95.17;101118.78;5037071;28;45487;-70
2021/12/06 04:52:18;;;;;;;;;61.33;48.67;;;;;4.60;93.82;101134.47;5036659;28;45598;-70
2021/12/06 04:54:51;;;;;;;;;63.33;43.33;;;;;4.57;93.13;101140.53;5036917;28;45239;-70
2021/12/06 04:57:28;;;;;;;;;58.67;47.00;;;;;4.56;94.11;101145.75;5036977;28;45263;-70
2021/12/06 05:00:20;;;;;;;;;56.00;45.33;;;;;4.59;93.66;101157.09;5036816;28;45363;-70
2021/12/06 05:02:46;;;;;;;;;60.67;46.33;;;;;4.59;92.97;101154.47;5036378;28;45318;-70
2021/12/06 05:05:21;;;;;;;;;60.00;46.33;;;;;4.59;94.48;101166.63;5036312;28;45553;-70
2021/12/06 05:07:53;;;;;;;;;56.33;44.33;;;;;4.63;93.67;101163.19;5036987;28;45322;-70
2021/12/06 05:10:19;;;;;;;;;61.33;47.67;;;;;4.51;93.16;101136.13;5036643;28;45569;-70
2021/12/06 05:12:46;;;;;;;;;61.67;46.00;;;;;4.54;93.01;101145.72;5036155;28;45470;-70
2021/12/06 05:15:12;;;;;;;;;62.67;46.67;;;;;4.36;93.55;101134.28;5036410;28;45443;-71
2021/12/06 05:17:38;;;;;;;;;50.67;42.00;;;;;4.42;93.86;101151.72;5036597;28;45325;-70
2021/12/06 05:20:05;;;;;;;;;55.67;44.33;;;;;4.30;93.77;101136.84;5036593;28;45764;-70
2021/12/06 05:22:31;;;;;;;;;61.33;46.33;;;;;4.42;93.84;101149.09;5036309;28;45238;-71
2021/12/06 05:24:56;;;;;;;;;61.00;46.00;;;;;4.33;93.79;101134.25;5036264;28;45463;-71
2021/12/06 05:27:27;;;;;;;;;67.00;48.33;;;;;4.37;93.15;101145.56;5036692;28;45359;-71
2021/12/06 05:29:57;;;;;;;;;61.00;48.00;;;;;4.39;94.10;101151.69;5036627;28;45656;-70
2021/12/06 05:32:25;;;;;;;;;63.67;48.33;;;;;4.40;93.75;101155.16;5036158;28;45295;-70
2021/12/06 05:34:58;;;;;;;;;63.00;49.67;;;;;4.25;93.07;101142.88;5036210;28;45326;-69
2021/12/06 05:37:24;;;;;;;;;63.67;50.33;;;;;4.35;94.48;101166.41;5036192;28;45433;-70
2021/12/06 05:39:49;;;;;;;;;63.00;49.00;;;;;4.29;92.82;101163.75;5036337;28;45456;-70
2021/12/06 05:42:16;;;;;;;;;69.67;51.67;;;;;4.28;93.72;101163.75;5036147;28;45542;-70
2021/12/06 05:44:42;;;;;;;;;64.33;48.67;;;;;4.27;93.47;101162.88;5038237;28;45415;-71
2021/12/06 05:47:08;;;;;;;;;67.67;50.00;;;;;4.12;92.94;101139.25;5039815;28;46043;-70
2021/12/06 05:49:35;;;;;;;;;60.67;49.00;;;;;4.13;92.36;101160.13;5039639;28;45330;-70
2021/12/06 05:52:00;;;;;;;;;70.00;54.33;;;;;3.98;93.83;101153.03;5039074;28;46186;-71
2021/12/06 05:54:28;;;;;;;;;60.00;48.67;;;;;4.10;94.02;101167.03;5039345;28;45361;-70
2021/12/06 05:56:54;;;;;;;;;63.67;50.67;;;;;3.94;92.89;101150.38;5039633;28;45517;-70
2021/12/06 05:59:19;;;;;;;;;77.33;55.67;;;;;4.07;94.56;101177.44;5039440;28;45334;-70
2021/12/06 06:01:48;;;;;;;;;70.00;51.67;;;;;4.00;94.35;101159.13;5039216;28;46093;-70
2021/12/06 06:04:13;;;;;;;;;69.67;52.33;;;;;4.02;92.52;101166.94;5038752;28;45462;-70
2021/12/06 06:06:39;;;;;;;;;65.67;49.33;;;;;4.02;92.44;101179.97;5039108;28;46000;-70
2021/12/06 06:09:06;;;;;;;;;75.67;56.33;;;;;3.93;93.63;101172.94;5039334;28;45242;-70
2021/12/06 06:11:34;;;;;;;;;68.00;53.00;;;;;3.88;94.04;101165.91;5038861;28;45556;-70
2021/12/06 06:14:00;;;;;;;;;70.33;53.33;;;;;3.93;93.90;101172.06;5039105;28;45357;-70
2021/12/06 06:16:30;;;;;;;;;58.67;46.67;;;;;3.95;92.83;101175.53;5039043;28;45326;-70
2021/12/06 06:18:56;;;;;;;;;67.00;52.67;;;;;3.84;93.85;101162.41;5038810;28;45246;-68
2021/12/06 06:21:21;;;;;;;;;63.67;49.67;;;;;3.78;93.79;101158.00;5039042;28;45330;-69
2021/12/06 06:23:47;;;;;;;;;65.33;51.67;;;;;3.81;94.65;101165.84;5038918;28;45325;-69
2021/12/06 06:26:12;;;;;;;;;61.00;47.33;;;;;3.87;93.50;101161.59;5039140;28;45306;-69
2021/12/06 06:28:38;;;;;;;;;73.33;54.33;;;;;3.85;92.59;101166.78;5038997;28;45758;-69
2021/12/06 06:31:03;;;;;;;;;71.67;55.33;;;;;3.78;92.80;101168.41;5038485;28;46333;-69
2021/12/06 06:33:29;;;;;;;;;70.33;52.33;;;;;3.72;92.51;101162.25;5038783;28;45543;-69
2021/12/06 06:35:54;;;;;;;;;70.33;52.00;;;;;3.65;92.40;101171.75;5038670;28;45450;-69
2021/12/06 06:38:20;;;;;;;;;80.00;59.67;;;;;3.53;94.08;101162.06;5039194;28;45497;-69
2021/12/06 06:40:46;;;;;;;;;78.67;58.33;;;;;3.59;93.94;101172.53;5038220;28;46629;-69
2021/12/06 06:43:12;;;;;;;;;71.33;54.00;;;;;3.62;94.10;101176.91;5038471;28;45487;-69
2021/12/06 06:45:38;;;;;;;;;79.25;60.75;;;;;3.65;93.15;101195.19;5038677;28;45436;-69
2021/12/06 06:48:04;;;;;;;;;67.67;51.67;;;;;3.54;93.39;101186.34;5038841;28;45322;-69
2021/12/06 06:50:29;;;;;;;;;59.33;43.67;;;;;3.32;93.34;101141.81;5038553;28;46429;-69
2021/12/06 06:52:55;;;;;;;;;63.00;49.00;;;;;3.61;92.68;101188.16;5038367;28;45179;-70
2021/12/06 06:55:22;;;;;;;;;61.67;47.33;;;;;3.56;92.43;101187.22;5038251;28;45353;-70
2021/12/06 06:57:50;;;;;;;;;63.67;49.67;;;;;3.52;92.05;101182.84;5038941;28;45459;-69
2021/12/06 07:00:20;;;;;;;;;68.33;55.00;;;;;3.52;93.14;101185.47;5037970;28;45623;-69
2021/12/06 07:02:45;;;;;;;;;64.67;48.00;;;;;3.46;92.44;101162.81;5038595;28;45227;-69
2021/12/06 07:05:12;;;;;;;;;64.33;50.33;;;;;3.55;92.67;101188.09;5038048;28;45328;-68
2021/12/06 07:07:38;;;;;;;;;66.33;50.00;;;;;3.45;92.79;101179.28;5038433;28;45404;-69
2021/12/06 07:10:05;;;;;;;;;68.33;49.00;;;;;3.44;91.98;101191.44;5038049;28;47036;-68
2021/12/06 07:12:31;;;;;;;;;66.33;49.00;;;;;3.53;92.52;101200.19;5037890;28;45327;-69
2021/12/06 07:14:56;;;;;;;;;69.00;50.00;;;;;3.35;92.24;101165.25;5038098;28;45321;-68
2021/12/06 07:17:22;;;;;;;;;76.00;57.33;;;;;3.19;92.19;101126.88;5020438;28;45551;-69
2021/12/06 07:19:47;;;;;;;;;69.33;50.33;;;;;3.35;91.38;101162.66;5037801;28;46415;-68
2021/12/06 07:22:13;;;;;;;;;72.33;50.33;;;;;3.24;90.93;101165.13;5037931;28;45497;-68
2021/12/06 07:24:39;;;;;;;;;77.00;54.33;;;;;3.22;91.20;101173.75;5038131;28;45424;-69
2021/12/06 07:27:05;;;;;;;;;77.67;57.00;;;;;3.12;91.75;101177.94;5038133;28;45283;-68
2021/12/06 07:29:33;;;;;;;;;85.25;63.50;;;;;2.86;93.27;101141.13;5037731;28;47011;-68
2021/12/06 07:32:00;;;;;;;;;84.00;60.67;;;;;2.99;92.51;101153.47;5037579;28;45454;-69
2021/12/06 07:34:26;;;;;;;;;78.33;58.67;;;;;3.27;92.25;101193.78;5037815;28;45334;-68
2021/12/06 07:36:51;;;;;;;;;82.00;59.67;;;;;3.26;91.78;101194.63;5037893;28;45724;-68
2021/12/06 07:39:17;;;;;;;;;78.00;57.67;;;;;3.32;92.62;101201.66;5037615;28;46240;-68
2021/12/06 07:41:42;;;;;;;;;82.33;63.00;;;;;3.30;92.63;101193.84;5037912;28;45294;-68
2021/12/06 07:44:09;;;;;;;;;79.75;56.50;;;;;3.36;93.41;101198.25;5037823;28;45366;-69
2021/12/06 07:46:34;;;;;;;;;76.00;58.33;;;;;3.39;93.64;101187.03;5036631;28;45775;-69
2021/12/06 07:49:00;;;;;;;;;84.00;59.33;;;;;3.41;94.70;101196.59;5037303;28;45639;-69
2021/12/06 07:51:27;;;;;;;;;75.67;56.00;;;;;3.48;94.39;101203.63;5037430;28;45401;-69
2021/12/06 07:53:54;;;;;;;;;78.00;57.33;;;;;3.60;94.39;101202.03;5037899;28;45205;-67
2021/12/06 07:56:20;;;;;;;;;76.00;53.67;;;;;3.63;94.13;101210.78;5037501;28;45402;-67
2021/12/06 07:58:47;;;;;;;;;68.33;51.00;;;;;3.66;95.07;101209.94;5037244;28;45313;-67
2021/12/06 08:01:14;;;;;;;;;70.33;55.00;;;;;3.69;95.25;101198.69;5036972;28;45460;-68
2021/12/06 08:03:42;;;;;;;;;85.00;65.67;;;;;3.67;96.61;101193.44;5036040;28;45212;-69
2021/12/06 08:06:08;;;;;;;;;73.67;54.33;;;;;3.73;97.09;101193.56;5035798;28;45538;-68
2021/12/06 08:08:35;;;;;;;;;68.00;51.33;;;;;3.74;94.33;101186.59;5035502;28;46115;-72
2021/12/06 08:11:05;;;;;;;;;79.00;58.67;;;;;3.73;97.74;101193.56;5036724;28;45372;-71
2021/12/06 08:13:33;;;;;;;;;70.33;52.00;;;;;3.78;97.68;101206.63;5036972;28;45388;-72
2021/12/06 08:16:03;;;;;;;;;79.67;56.00;;;;;3.74;98.27;101194.41;5037111;28;45298;-72
2021/12/06 08:18:28;;;;;;;;;82.33;56.00;;;;;3.90;98.30;101204.16;5036676;28;45344;-73
2021/12/06 08:20:56;;;;;;;;;77.67;55.00;;;;;3.91;98.34;101195.50;5036918;28;45461;-72
2021/12/06 08:23:22;;;;;;;;;71.00;49.67;;;;;3.99;97.11;101200.78;5037066;28;45334;-73
2021/12/06 08:25:49;;;;;;;;;73.00;53.33;;;;;3.75;98.11;101147.56;5037329;28;45295;-73
2021/12/06 08:28:16;;;;;;;;;68.00;50.67;;;;;3.96;97.20;101182.50;5036673;28;45407;-73
2021/12/06 08:30:41;;;;;;;;;71.00;52.33;;;;;4.10;96.27;101195.72;5036767;28;45353;-71
2021/12/06 08:33:08;;;;;;;;;65.67;51.67;;;;;4.11;96.43;101179.19;5037020;28;45417;-73
2021/12/06 08:35:37;;;;;;;;;71.00;54.00;;;;;3.98;96.37;101157.38;5036965;28;45424;-72
2021/12/06 08:38:03;;;;;;;;;74.33;53.00;;;;;3.99;99.20;101146.97;5036271;28;45480;-72
2021/12/06 08:40:29;;;;;;;;;66.67;50.67;;;;;4.17;98.05;101161.91;5036802;28;45459;-72
2021/12/06 08:42:55;;;;;;;;;71.00;51.67;;;;;4.23;98.36;101163.72;5036344;28;45477;-72
2021/12/06 08:45:22;;;;;;;;;75.00;51.00;;;;;4.28;96.79;101158.53;5036942;28;45461;-71
2021/12/06 08:47:47;;;;;;;;;62.67;46.00;;;;;4.29;96.82;101162.91;5036385;28;46957;-71
2021/12/06 08:50:18;;;;;;;;;62.33;48.67;;;;;4.30;96.16;101160.31;5036300;28;45397;-72
2021/12/06 08:52:44;;;;;;;;;55.67;45.33;;;;;4.27;95.91;101131.59;5036800;28;45368;-71
2021/12/06 08:55:11;;;;;;;;;49.33;36.00;;;;;4.33;95.79;101126.44;5036705;28;45349;-72
2021/12/06 08:57:37;;;;;;;;;74.33;52.00;;;;;4.30;96.87;101123.81;5036479;28;46617;-72
2021/12/06 09:00:08;;;;;;;;;65.33;51.00;;;;;4.44;96.79;101144.78;5036130;28;45403;-72
2021/12/06 09:02:33;;;;;;;;;66.67;46.00;;;;;4.54;95.74;101148.34;5036471;28;45255;-72
2021/12/06 09:04:59;;;;;;;;;67.00;51.67;;;;;4.62;95.86;101164.94;5036749;28;45410;-72
2021/12/06 09:07:25;;;;;;;;;64.67;47.67;;;;;4.73;95.32;101169.38;5036158;28;45481;-72
2021/12/06 09:09:55;;;;;;;;;66.67;47.00;;;;;4.78;94.74;101181.59;5036213;28;45338;-72
2021/12/06 09:12:27;;;;;;;;;65.67;50.00;;;;;4.84;95.58;101170.31;5036227;28;45460;-72
2021/12/06 09:14:54;;;;;;;;;63.00;46.67;;;;;4.60;94.56;101106.66;5036420;28;45538;-72
2021/12/06 09:17:20;;;;;;;;;61.33;47.67;;;;;4.92;94.59;101141.66;5036040;28;46352;-73
2021/12/06 09:19:46;;;;;;;;;65.33;48.00;;;;;4.98;94.63;101159.97;5039692;28;45480;-72
2021/12/06 09:22:12;;;;;;;;;67.33;49.00;;;;;5.02;94.39;101153.91;5039533;28;45507;-72
2021/12/06 09:24:38;;;;;;;;;66.67;52.00;;;;;5.04;94.62;101147.84;5040191;28;45400;-72
2021/12/06 09:27:05;;;;;;;;;57.00;36.33;;;;;5.06;94.12;101120.00;5039562;28;46327;-72
2021/12/06 09:29:32;;;;;;;;;61.33;44.00;;;;;5.12;93.70;101115.72;5039380;28;45497;-72
2021/12/06 09:32:00;;;;;;;;;63.00;44.00;;;;;5.02;93.32;101105.19;5039667;28;45455;-72
2021/12/06 09:34:26;;;;;;;;;60.00;46.33;;;;;5.13;93.91;101107.88;5039728;28;45220;-72
2021/12/06 09:36:55;;;;;;;;;63.67;46.33;;;;;5.15;93.72;101098.31;5038916;28;45289;-72
2021/12/06 09:39:20;;;;;;;;;59.33;45.00;;;;;5.20;92.92;101112.28;5039358;28;45396;-73
2021/12/06 09:41:46;;;;;;;;;68.00;47.67;;;;;5.16;93.66;101118.34;5039129;28;45856;-73
2021/12/06 09:44:13;;;;;;;;;74.67;48.00;;;;;5.26;93.31;101131.44;5039582;28;45313;-71
2021/12/06 09:46:39;;;;;;;;;56.00;45.00;;;;;5.28;93.81;101124.50;5039054;28;45524;-71
2021/12/06 09:49:09;;;;;;;;;62.00;47.33;;;;;5.46;94.29;101128.91;5038063;28;45359;-71
2021/12/06 09:51:37;;;;;;;;;59.67;46.33;;;;;5.62;93.46;101127.25;5042532;28;45481;-69
2021/12/06 09:54:03;;;;;;;;;62.67;49.00;;;;;5.62;92.84;101116.78;5038785;28;45317;-72
2021/12/06 09:56:33;;;;;;;;;69.00;49.00;;;;;5.78;93.21;101123.84;5037754;28;46120;-72
2021/12/06 09:59:01;;;;;;;;;62.67;46.33;;;;;5.93;92.35;101123.84;5038886;28;45342;-71
2021/12/06 10:01:34;;;;;;;;;66.00;50.00;;;;;6.13;92.39;101107.38;5038378;28;45396;-71
2021/12/06 10:04:02;;;;;;;;;49.00;36.33;;;;;6.22;91.33;101115.22;5021025;28;45479;-70
2021/12/06 10:06:30;;;;;;;;;62.00;43.33;;;;;5.95;91.33;101065.50;5042029;28;46097;-71
2021/12/06 10:08:58;;;;;;;;;57.33;42.33;;;;;6.10;91.72;101099.53;5047464;28;45220;-72
2021/12/06 10:11:25;;;;;;;;;62.67;47.33;;;;;5.88;90.32;101083.78;5038670;28;45374;-72
2021/12/06 10:13:51;;;;;;;;;64.33;45.33;;;;;6.03;90.78;101121.31;5040196;28;45503;-72
2021/12/06 10:16:19;;;;;;;;;58.33;45.00;;;;;6.00;90.76;101114.34;5037836;28;47273;-71
2021/12/06 10:18:45;;;;;;;;;56.67;45.67;;;;;5.94;91.04;101096.00;5038563;28;45370;-71
2021/12/06 10:21:10;;;;;;;;;60.67;45.33;;;;;6.00;90.76;101101.25;5038665;28;45529;-71
2021/12/06 10:23:37;;;;;;;;;63.33;44.67;;;;;5.93;91.46;101058.53;5038896;28;45424;-71
2021/12/06 10:26:06;;;;;;;;;59.00;46.00;;;;;6.25;91.02;101067.31;5039000;28;46389;-71
2021/12/06 10:28:33;;;;;;;;;47.67;40.00;;;;;6.55;90.60;101076.88;5038767;28;45381;-71
2021/12/06 10:31:03;;;;;;;;;60.00;45.00;;;;;6.69;88.96;101073.38;5038543;28;45345;-72
2021/12/06 10:33:34;;;;;;;;;55.33;41.00;;;;;6.60;87.93;101054.19;5039076;28;45474;-71
2021/12/06 10:36:04;;;;;;;;;55.67;42.00;;;;;6.56;88.52;101057.69;5038278;28;46485;-71
2021/12/06 10:38:33;;;;;;;;;58.00;45.00;;;;;6.58;88.36;101048.09;5038764;28;45391;-71
2021/12/06 10:41:06;;;;;;;;;55.33;42.33;;;;;6.49;88.36;101042.00;5038783;28;45480;-71
2021/12/06 10:43:32;;;;;;;;;67.67;47.67;;;;;6.42;88.26;101025.47;5038402;28;45567;-72
2021/12/06 10:45:59;;;;;;;;;62.33;45.33;;;;;6.48;86.21;101032.41;5038553;28;47353;-71
2021/12/06 10:48:26;;;;;;;;;59.33;46.00;;;;;6.49;87.18;101027.19;5038469;28;45349;-71
2021/12/06 10:50:51;;;;;;;;;59.33;45.00;;;;;6.50;87.24;101020.22;5038462;28;45310;-72
2021/12/06 10:53:20;;;;;;;;;59.67;43.67;;;;;6.43;87.02;101008.88;5038827;28;45463;-71
2021/12/06 10:55:48;;;;;;;;;60.67;44.67;;;;;6.18;87.59;100959.22;5038280;28;45598;-70
2021/12/06 10:58:17;;;;;;;;;60.33;48.33;;;;;6.31;87.57;100973.16;5038296;28;45248;-70
2021/12/06 11:00:52;;;;;;;;;68.67;49.67;;;;;6.37;87.65;100974.91;5038535;28;45309;-70
2021/12/06 11:03:27;;;;;;;;;65.33;49.00;;;;;6.56;87.49;100994.91;5038543;28;45295;-71
2021/12/06 11:06:02;;;;;;;;;62.33;42.33;;;;;6.59;87.60;100986.19;5038039;28;45656;-72
2021/12/06 11:08:28;;;;;;;;;58.33;43.00;;;;;6.71;86.93;100983.53;5037975;28;45259;-71
2021/12/06 11:11:00;;;;;;;;;58.67;44.67;;;;;6.74;86.60;100980.91;5038442;28;45317;-73
2021/12/06 11:13:30;;;;;;;;;47.33;37.33;;;;;6.84;86.64;100981.75;5038101;28;45463;-73
2021/12/06 11:15:57;;;;;;;;;52.00;41.00;;;;;6.89;85.16;100998.28;5038000;28;45637;-72
2021/12/06 11:18:52;;;;;;;;;47.67;37.67;;;;;6.89;84.94;100986.97;5038008;28;45385;-72
2021/12/06 11:21:28;;;;;;;;;50.67;37.33;;;;;6.93;84.82;100991.31;5038207;28;45381;-71
2021/12/06 11:24:05;;;;;;;;;44.33;34.33;;;;;6.96;85.23;100989.53;5037273;28;45320;-68
2021/12/06 11:26:33;;;;;;;;;56.33;40.33;;;;;6.96;84.94;100979.06;5011380;28;47768;-67
2021/12/06 11:29:05;;;;;;;;;36.33;33.67;;;;;7.04;83.41;100979.03;5047692;28;45430;-67
2021/12/06 11:31:31;;;;;;;;;48.67;35.67;;;;;6.95;82.70;100953.75;5058233;28;45432;-68
2021/12/06 11:34:02;;;;;;;;;32.67;27.33;;;;;7.07;83.37;100962.44;5020815;28;45467;-67